Valley Forge, Pennsylvania
Current Conditions -  °F | °C
As of 7:55 AM on Thursday 27 Nov 2014 (Local Time) from KLOM Reporting Station
Overcast Overcast  
Wind Chill: 34°   Ceiling: 3400
Heat Index: 34°   Visibility: 10mi
Dew Point: 32°   Wind: 0mph
Humidity: 93%   Direction: NA
Pressure: 29.99"   Gusts: NA
Location:  40.08°N, 75.36°W
Report Text: KLOM 271255Z AUTO 00000KT 10SM SCT025 BKN034 OVC075 01/00 A2999 RMK AO1
Loading
Personal Weather Stations






























Interactive Weather Map New forecast layout! Learn more

10-Day Weather Forecast

Advertisements
Track Severe Weather on mobile